createdAt,value
2022-10-13T00:01:44.817Z,9.90
2022-10-13T00:04:32.687Z,9.80
2022-10-13T00:07:20.545Z,9.70
2022-10-13T00:10:10.500Z,9.60
2022-10-13T00:12:58.476Z,9.60
2022-10-13T00:15:47.024Z,9.60
2022-10-13T00:18:34.910Z,9.60
2022-10-13T00:21:24.188Z,9.70
2022-10-13T00:24:12.400Z,9.70
2022-10-13T00:27:01.605Z,9.80
2022-10-13T00:29:49.436Z,9.80
2022-10-13T00:32:37.277Z,9.90
2022-10-13T00:35:25.125Z,9.90
2022-10-13T00:38:13.382Z,10.00
2022-10-13T00:41:01.239Z,9.90
2022-10-13T00:43:52.271Z,9.90
2022-10-13T00:46:40.146Z,9.80
2022-10-13T00:49:28.034Z,9.80
2022-10-13T00:52:17.213Z,9.80
2022-10-13T00:55:07.143Z,9.80
2022-10-13T00:57:56.074Z,9.80
2022-10-13T01:00:46.308Z,9.80
2022-10-13T01:03:34.607Z,9.80
2022-10-13T01:06:23.843Z,9.80
2022-10-13T01:09:11.993Z,9.80
2022-10-13T01:12:03.851Z,9.80
2022-10-13T01:14:54.546Z,9.90
2022-10-13T01:17:46.074Z,9.90
2022-10-13T01:20:41.715Z,10.00
2022-10-13T01:23:48.330Z,9.90
2022-10-13T01:27:02.375Z,9.90
2022-10-13T01:30:00.445Z,9.80
2022-10-13T01:33:11.863Z,9.70
2022-10-13T01:36:05.229Z,9.60
2022-10-13T01:38:55.672Z,9.70
2022-10-13T01:41:45.241Z,9.60
2022-10-13T01:44:37.171Z,9.60
2022-10-13T01:47:26.716Z,9.50
2022-10-13T01:50:14.988Z,9.60
2022-10-13T01:53:04.231Z,9.60
2022-10-13T01:55:53.096Z,9.60
2022-10-13T01:58:41.126Z,9.70
2022-10-13T02:01:40.794Z,9.70
2022-10-13T02:04:38.472Z,9.80
2022-10-13T02:07:29.914Z,9.90
2022-10-13T02:10:21.617Z,9.90
2022-10-13T02:13:12.235Z,9.90
2022-10-13T02:16:01.061Z,9.90
2022-10-13T02:18:49.083Z,9.90
2022-10-13T02:21:38.807Z,9.90
2022-10-13T02:24:26.762Z,9.90
2022-10-13T02:27:14.849Z,9.90
2022-10-13T02:30:02.684Z,9.80
2022-10-13T02:32:50.629Z,9.70
2022-10-13T02:35:38.917Z,9.70
2022-10-13T02:38:28.165Z,9.60
2022-10-13T02:41:16.168Z,9.60
2022-10-13T02:44:04.312Z,9.60
2022-10-13T02:46:52.257Z,9.50
2022-10-13T02:49:40.108Z,9.60
2022-10-13T02:52:28.136Z,9.70
2022-10-13T02:55:17.583Z,9.60
2022-10-13T02:58:05.524Z,9.60
2022-10-13T03:00:53.521Z,9.50
2022-10-13T03:03:41.625Z,9.50
2022-10-13T03:06:29.501Z,9.50
2022-10-13T03:09:17.455Z,9.50
2022-10-13T03:12:06.934Z,9.40
2022-10-13T03:14:54.791Z,9.40
2022-10-13T03:17:42.637Z,9.30
2022-10-13T03:20:30.483Z,9.30
2022-10-13T03:23:18.376Z,9.30
2022-10-13T03:26:06.318Z,9.30
2022-10-13T03:28:55.606Z,9.20
2022-10-13T03:31:43.557Z,9.20
2022-10-13T03:34:31.650Z,9.20
2022-10-13T03:37:19.763Z,9.20
2022-10-13T03:40:08.382Z,9.10
2022-10-13T03:42:56.264Z,9.10
2022-10-13T03:45:45.454Z,9.20
2022-10-13T03:48:33.411Z,9.10
2022-10-13T03:51:21.981Z,9.10
2022-10-13T03:54:11.459Z,9.10
2022-10-13T03:56:59.435Z,9.10
2022-10-13T03:59:47.383Z,9.10
2022-10-13T04:02:36.628Z,9.10
2022-10-13T04:05:26.296Z,9.10
2022-10-13T04:08:14.260Z,9.00
2022-10-13T04:11:02.176Z,9.00
2022-10-13T04:13:50.291Z,9.00
2022-10-13T04:16:39.709Z,9.00
2022-10-13T04:19:29.000Z,9.00
2022-10-13T04:22:16.881Z,8.90
2022-10-13T04:25:05.064Z,9.00
2022-10-13T04:27:52.923Z,9.00
2022-10-13T04:30:41.651Z,9.00
2022-10-13T04:33:31.726Z,9.00
2022-10-13T04:36:21.439Z,9.00
2022-10-13T04:39:09.332Z,9.10
2022-10-13T04:41:57.274Z,9.20
2022-10-13T04:44:45.169Z,9.20
2022-10-13T04:47:36.913Z,9.30
2022-10-13T04:50:25.034Z,9.30
2022-10-13T04:53:18.927Z,9.30
2022-10-13T04:56:09.311Z,9.30
2022-10-13T04:58:57.390Z,9.30
2022-10-13T05:01:45.269Z,9.30
2022-10-13T05:04:33.141Z,9.30
2022-10-13T05:07:21.206Z,9.20
2022-10-13T05:10:10.874Z,9.30
2022-10-13T05:12:58.767Z,9.20
2022-10-13T05:15:46.762Z,9.10
2022-10-13T05:18:34.974Z,9.10
2022-10-13T05:21:24.093Z,9.10
2022-10-13T05:24:13.705Z,9.10
2022-10-13T05:27:03.044Z,9.00
2022-10-13T05:29:51.061Z,9.00
2022-10-13T05:32:39.060Z,9.00
2022-10-13T05:35:27.227Z,8.90
2022-10-13T05:38:15.115Z,8.90
2022-10-13T05:41:03.959Z,8.90
2022-10-13T05:43:55.467Z,9.00
2022-10-13T05:46:43.478Z,8.90
2022-10-13T05:49:31.381Z,8.90
2022-10-13T05:52:20.849Z,8.90
2022-10-13T05:55:10.890Z,9.00
2022-10-13T05:57:58.824Z,9.00
2022-10-13T06:00:48.101Z,9.10
2022-10-13T06:03:36.635Z,9.10
2022-10-13T06:06:30.476Z,9.10
2022-10-13T06:09:19.414Z,9.10
2022-10-13T06:12:07.839Z,9.10
2022-10-13T06:14:55.704Z,9.10
2022-10-13T06:17:44.993Z,9.00
2022-10-13T06:20:32.859Z,9.00
2022-10-13T06:23:20.807Z,9.10
2022-10-13T06:26:09.161Z,9.00
2022-10-13T06:28:59.706Z,9.00
2022-10-13T06:31:47.885Z,9.00
2022-10-13T06:34:37.178Z,9.10
2022-10-13T06:37:27.547Z,9.20
2022-10-13T06:40:15.765Z,9.20
2022-10-13T06:43:04.053Z,9.20
2022-10-13T06:45:51.954Z,9.30
2022-10-13T06:48:40.117Z,9.30
2022-10-13T06:51:29.335Z,9.40
2022-10-13T06:54:17.342Z,9.40
2022-10-13T06:57:06.639Z,9.40
2022-10-13T06:59:54.538Z,9.50
2022-10-13T07:02:42.410Z,9.60
2022-10-13T07:05:30.533Z,9.60
2022-10-13T07:08:20.070Z,9.60
2022-10-13T07:11:12.926Z,9.70
2022-10-13T07:14:03.334Z,9.70
2022-10-13T07:16:51.456Z,9.70
2022-10-13T07:19:39.316Z,9.70
2022-10-13T07:22:27.820Z,9.70
2022-10-13T07:25:17.580Z,9.70
2022-10-13T07:28:05.567Z,9.70
2022-10-13T07:30:53.879Z,9.70
2022-10-13T07:33:42.033Z,9.70
2022-10-13T07:36:29.929Z,9.70
2022-10-13T07:39:17.855Z,9.70
2022-10-13T07:42:07.214Z,9.80
2022-10-13T07:44:55.350Z,9.80
2022-10-13T07:47:43.368Z,9.90
2022-10-13T07:50:31.256Z,9.90
2022-10-13T07:53:19.318Z,9.90
2022-10-13T07:56:08.389Z,10.00
2022-10-13T07:58:57.669Z,10.10
2022-10-13T08:01:45.647Z,10.10
2022-10-13T08:04:34.333Z,10.20
2022-10-13T08:07:22.830Z,10.30
2022-10-13T08:10:11.184Z,10.30
2022-10-13T08:12:59.222Z,10.30
2022-10-13T08:15:48.805Z,10.40
2022-10-13T08:18:38.163Z,10.50
2022-10-13T08:21:57.024Z,10.50
2022-10-13T08:24:34.376Z,10.60
2022-10-13T08:27:26.641Z,10.70
2022-10-13T08:30:25.104Z,10.80
2022-10-13T08:33:14.672Z,10.90
2022-10-13T08:36:02.632Z,10.90
2022-10-13T08:38:50.705Z,10.90
2022-10-13T08:41:40.207Z,10.90
2022-10-13T08:47:44.439Z,10.80
2022-10-13T08:50:36.747Z,10.90
2022-10-13T08:53:28.619Z,10.90
2022-10-13T08:56:18.739Z,11.00
2022-10-13T08:59:07.653Z,11.10
2022-10-13T09:01:56.411Z,11.20
2022-10-13T09:04:46.609Z,11.20
2022-10-13T09:07:37.503Z,11.30
2022-10-13T09:10:25.470Z,11.40
2022-10-13T09:13:13.355Z,11.40
2022-10-13T09:16:01.315Z,11.50
2022-10-13T09:18:49.190Z,11.50
2022-10-13T09:21:37.069Z,11.50
2022-10-13T09:24:27.204Z,11.50
2022-10-13T09:27:16.371Z,11.60
2022-10-13T09:30:22.787Z,11.50
2022-10-13T09:33:20.238Z,11.50
2022-10-13T09:36:11.141Z,11.60
2022-10-13T09:39:06.746Z,11.60
2022-10-13T09:42:15.990Z,11.60
2022-10-13T09:45:14.631Z,11.60
2022-10-13T09:48:04.274Z,11.70
2022-10-13T09:50:53.919Z,11.70
2022-10-13T09:53:41.961Z,11.70
2022-10-13T09:56:32.710Z,11.80
2022-10-13T09:59:25.327Z,11.80
2022-10-13T10:02:29.532Z,11.80
2022-10-13T10:05:20.353Z,11.90
2022-10-13T10:08:13.763Z,12.00
2022-10-13T10:11:02.741Z,12.10
2022-10-13T10:13:52.645Z,12.10
2022-10-13T10:16:44.315Z,12.10
2022-10-13T10:19:45.310Z,12.20
2022-10-13T10:22:37.136Z,12.20
2022-10-13T10:25:29.922Z,12.30
2022-10-13T10:28:22.940Z,12.30
2022-10-13T10:31:18.810Z,12.50
2022-10-13T10:34:19.160Z,12.60
2022-10-13T10:37:15.559Z,12.70
2022-10-13T10:40:10.093Z,12.70
2022-10-13T10:43:04.194Z,12.80
2022-10-13T10:45:52.074Z,12.70
2022-10-13T10:48:40.602Z,12.70
2022-10-13T10:51:32.345Z,12.80
2022-10-13T10:54:25.205Z,12.90
2022-10-13T10:57:16.441Z,12.90
2022-10-13T11:00:06.007Z,13.10
2022-10-13T11:02:56.786Z,13.20
2022-10-13T11:06:00.712Z,13.30
2022-10-13T11:08:50.540Z,13.40
2022-10-13T11:11:42.180Z,13.50
2022-10-13T11:14:31.942Z,13.70
2022-10-13T11:17:21.251Z,13.80
2022-10-13T11:20:25.027Z,14.00
2022-10-13T11:23:31.348Z,14.10
2022-10-13T11:26:41.779Z,14.10
2022-10-13T11:29:54.627Z,14.20
2022-10-13T11:32:44.882Z,14.20
2022-10-13T11:35:32.765Z,14.20
2022-10-13T11:38:27.062Z,14.20
2022-10-13T11:41:17.889Z,14.20
2022-10-13T11:44:11.591Z,14.30
2022-10-13T11:47:03.776Z,14.30
2022-10-13T11:49:56.377Z,14.40
2022-10-13T11:52:54.428Z,14.40
2022-10-13T11:55:46.685Z,14.40
2022-10-13T11:58:34.768Z,14.40
2022-10-13T12:01:24.186Z,14.40
2022-10-13T12:04:14.369Z,14.50
2022-10-13T12:07:03.189Z,14.50
2022-10-13T12:09:52.180Z,14.50
2022-10-13T12:12:46.955Z,14.50
2022-10-13T12:15:36.786Z,14.50
2022-10-13T12:18:27.592Z,14.60
2022-10-13T12:21:16.417Z,14.60
2022-10-13T12:24:09.550Z,14.60
2022-10-13T12:26:59.675Z,14.70
2022-10-13T12:29:48.128Z,14.70
2022-10-13T12:32:36.682Z,14.70
2022-10-13T12:35:26.903Z,14.70
2022-10-13T12:38:18.255Z,14.70
2022-10-13T12:41:06.824Z,14.80
2022-10-13T12:43:59.885Z,14.80
2022-10-13T12:46:52.230Z,14.70
2022-10-13T12:49:40.101Z,14.80
2022-10-13T12:52:30.728Z,14.80
2022-10-13T12:55:20.293Z,14.80
2022-10-13T12:58:17.681Z,14.90
2022-10-13T13:01:10.073Z,14.80
2022-10-13T13:04:00.268Z,14.80
2022-10-13T13:06:55.880Z,14.80
2022-10-13T13:10:00.092Z,14.80
2022-10-13T13:12:49.129Z,14.90
2022-10-13T13:15:38.235Z,14.80
2022-10-13T13:18:36.233Z,14.80
2022-10-13T13:21:24.142Z,14.80
2022-10-13T13:24:22.020Z,14.90
2022-10-13T13:27:24.493Z,14.90
2022-10-13T13:30:12.957Z,15.00
2022-10-13T13:33:00.886Z,15.00
2022-10-13T13:35:49.035Z,15.00
2022-10-13T13:38:37.433Z,15.00
2022-10-13T13:41:27.761Z,15.00
2022-10-13T13:44:17.032Z,15.00
2022-10-13T13:47:04.992Z,15.00
2022-10-13T13:49:53.539Z,15.00
2022-10-13T13:52:41.781Z,15.00
2022-10-13T13:55:30.251Z,15.00
2022-10-13T13:58:18.549Z,15.00
2022-10-13T14:01:08.009Z,15.00
2022-10-13T14:03:56.281Z,15.10
2022-10-13T14:06:44.112Z,15.10
2022-10-13T14:09:32.058Z,15.00
2022-10-13T14:12:20.133Z,15.00
2022-10-13T14:15:08.817Z,15.00
2022-10-13T14:17:58.305Z,14.90
2022-10-13T14:20:46.330Z,14.90
2022-10-13T14:23:34.209Z,14.90
2022-10-13T14:26:22.075Z,14.80
2022-10-13T14:29:11.044Z,14.80
2022-10-13T14:31:58.963Z,14.80
2022-10-13T14:34:48.176Z,14.70
2022-10-13T14:37:36.497Z,14.80
2022-10-13T14:40:24.620Z,14.70
2022-10-13T14:43:12.481Z,14.70
2022-10-13T14:46:02.398Z,14.60
2022-10-13T14:48:50.328Z,14.70
2022-10-13T14:51:39.574Z,14.50
2022-10-13T14:54:27.534Z,14.60
2022-10-13T14:57:16.063Z,14.60
2022-10-13T15:00:04.904Z,14.60
2022-10-13T15:02:52.722Z,14.50
2022-10-13T15:05:40.655Z,14.60
2022-10-13T15:08:29.852Z,14.50
2022-10-13T15:11:18.952Z,14.50
2022-10-13T15:14:07.500Z,14.60
2022-10-13T15:16:55.608Z,14.50
2022-10-13T15:19:43.554Z,14.50
2022-10-13T15:22:31.526Z,14.40
2022-10-13T15:25:21.129Z,14.40
2022-10-13T15:28:08.966Z,14.30
2022-10-13T15:30:56.965Z,14.30
2022-10-13T15:33:45.831Z,14.30
2022-10-13T15:36:33.754Z,14.20
2022-10-13T15:39:21.597Z,14.20
2022-10-13T15:42:11.528Z,14.10
2022-10-13T15:45:14.776Z,14.10
2022-10-13T15:48:02.823Z,14.10
2022-10-13T15:50:50.740Z,14.10
2022-10-13T15:53:38.697Z,14.00
2022-10-13T15:56:26.560Z,14.00
2022-10-13T15:59:15.914Z,14.00
2022-10-13T16:02:03.768Z,14.00
2022-10-13T16:04:51.707Z,13.90
2022-10-13T16:07:39.873Z,13.90
2022-10-13T16:10:27.777Z,13.90
2022-10-13T16:13:16.197Z,13.90
2022-10-13T16:16:08.236Z,13.90
2022-10-13T16:18:56.066Z,13.80
2022-10-13T16:21:43.939Z,13.80
2022-10-13T16:24:31.811Z,13.80
2022-10-13T16:27:19.874Z,13.80
2022-10-13T16:30:08.721Z,13.80
2022-10-13T16:32:58.247Z,13.80
2022-10-13T16:35:46.095Z,13.70
2022-10-13T16:38:33.988Z,13.60
2022-10-13T16:41:21.953Z,13.70
2022-10-13T16:44:09.831Z,13.70
2022-10-13T16:46:58.467Z,13.70
2022-10-13T16:49:48.126Z,13.70
2022-10-13T16:52:36.113Z,13.70
2022-10-13T16:55:26.316Z,13.60
2022-10-13T16:58:14.537Z,13.60
2022-10-13T17:01:08.649Z,13.60
2022-10-13T17:03:57.439Z,13.60
2022-10-13T17:06:47.972Z,13.60
2022-10-13T17:09:35.826Z,13.50
2022-10-13T17:12:23.735Z,13.60
2022-10-13T17:15:11.870Z,13.60
2022-10-13T17:17:59.809Z,13.60
2022-10-13T17:20:54.356Z,13.50
2022-10-13T17:23:48.305Z,13.50
2022-10-13T17:26:36.668Z,13.60
2022-10-13T17:29:24.557Z,13.50
2022-10-13T17:32:12.486Z,13.50
2022-10-13T17:35:00.774Z,13.50
2022-10-13T17:37:50.057Z,13.50
2022-10-13T17:40:39.278Z,13.50
2022-10-13T17:43:27.322Z,13.50
2022-10-13T17:49:24.645Z,13.50
2022-10-13T17:52:12.469Z,13.50
2022-10-13T17:55:00.487Z,13.50
2022-10-13T17:57:49.728Z,13.40
2022-10-13T18:01:07.664Z,13.40
2022-10-13T18:03:46.306Z,13.40
2022-10-13T18:06:38.609Z,13.40
2022-10-13T18:09:26.836Z,13.50
2022-10-13T18:12:14.722Z,13.40
2022-10-13T18:15:04.128Z,13.40
2022-10-13T18:17:51.961Z,13.30
2022-10-13T18:20:39.971Z,13.30
2022-10-13T18:23:27.900Z,13.40
2022-10-13T18:26:17.038Z,13.40
2022-10-13T18:29:05.793Z,13.40
2022-10-13T18:31:58.219Z,13.40
2022-10-13T18:34:46.067Z,13.50
2022-10-13T18:37:33.919Z,13.40
2022-10-13T18:40:21.970Z,13.40
2022-10-13T18:43:09.803Z,13.40
2022-10-13T18:45:59.573Z,13.40
2022-10-13T18:48:48.798Z,13.50
2022-10-13T18:51:36.745Z,13.40
2022-10-13T18:54:24.794Z,13.40
2022-10-13T18:57:12.691Z,13.50
2022-10-13T19:00:00.592Z,13.40
2022-10-13T19:02:48.433Z,13.50
2022-10-13T19:05:39.637Z,13.40
2022-10-13T19:08:28.057Z,13.40
2022-10-13T19:11:17.186Z,13.50
2022-10-13T19:14:06.987Z,13.40
2022-10-13T19:16:59.386Z,13.40
2022-10-13T19:19:49.565Z,13.50
2022-10-13T19:22:38.782Z,13.40
2022-10-13T19:25:26.840Z,13.50
2022-10-13T19:28:15.151Z,13.40
2022-10-13T19:31:08.816Z,13.50
2022-10-13T19:33:57.126Z,13.50
2022-10-13T19:36:45.882Z,13.50
2022-10-13T19:39:35.130Z,13.40
2022-10-13T19:42:23.213Z,13.40
2022-10-13T19:45:11.825Z,13.50
2022-10-13T19:48:00.439Z,13.50
2022-10-13T19:50:48.578Z,13.50
2022-10-13T19:53:36.935Z,13.40
2022-10-13T19:56:27.043Z,13.50
2022-10-13T19:59:15.965Z,13.40
2022-10-13T20:02:04.131Z,13.40
2022-10-13T20:04:52.081Z,13.40
2022-10-13T20:07:39.989Z,13.40
2022-10-13T20:10:27.901Z,13.40
2022-10-13T20:13:17.335Z,13.40
2022-10-13T20:16:06.252Z,13.40
2022-10-13T20:18:54.743Z,13.50
2022-10-13T20:21:42.950Z,13.40
2022-10-13T20:24:30.888Z,13.40
2022-10-13T20:27:19.371Z,13.40
2022-10-13T20:30:09.710Z,13.40
2022-10-13T20:32:58.689Z,13.40
2022-10-13T20:35:46.555Z,13.50
2022-10-13T20:38:35.960Z,13.40
2022-10-13T20:41:25.531Z,13.40
2022-10-13T20:44:13.502Z,13.40
2022-10-13T20:47:02.721Z,13.40
2022-10-13T20:49:50.770Z,13.40
2022-10-13T20:52:38.683Z,13.50
2022-10-13T20:55:27.113Z,13.40
2022-10-13T20:58:14.960Z,13.50
2022-10-13T21:01:02.998Z,13.40
2022-10-13T21:03:55.578Z,13.40
2022-10-13T21:06:43.438Z,13.40
2022-10-13T21:09:31.324Z,13.40
2022-10-13T21:12:19.566Z,13.40
2022-10-13T21:15:08.088Z,13.40
2022-10-13T21:17:55.993Z,13.50
2022-10-13T21:20:45.250Z,13.50
2022-10-13T21:23:33.388Z,13.40
2022-10-13T21:26:22.469Z,13.40
2022-10-13T21:29:10.381Z,13.40
2022-10-13T21:31:58.233Z,13.40
2022-10-13T21:34:47.968Z,13.50
2022-10-13T21:37:37.875Z,13.40
2022-10-13T21:40:26.037Z,13.40
2022-10-13T21:43:13.930Z,13.40
2022-10-13T21:46:08.758Z,13.40
2022-10-13T21:48:57.746Z,13.40
2022-10-13T21:51:45.693Z,13.50
2022-10-13T21:54:34.980Z,13.40
2022-10-13T21:57:23.423Z,13.40
2022-10-13T22:00:12.160Z,13.40
2022-10-13T22:03:00.046Z,13.40
2022-10-13T22:05:47.983Z,13.50
2022-10-13T22:08:38.534Z,13.40
2022-10-13T22:11:29.405Z,13.50
2022-10-13T22:14:17.298Z,13.40
2022-10-13T22:17:07.309Z,13.40
2022-10-13T22:19:55.421Z,13.50
2022-10-13T22:22:43.288Z,13.50
2022-10-13T22:25:31.146Z,13.40
2022-10-13T22:28:20.480Z,13.40
2022-10-13T22:31:09.445Z,13.40
2022-10-13T22:33:57.404Z,13.40
2022-10-13T22:36:45.557Z,13.40
2022-10-13T22:39:33.579Z,13.40
2022-10-13T22:42:22.099Z,13.40
2022-10-13T22:45:11.797Z,13.50
2022-10-13T22:47:59.675Z,13.50
2022-10-13T22:50:47.552Z,13.50
2022-10-13T22:53:35.851Z,13.40
2022-10-13T22:56:24.863Z,13.50
2022-10-13T22:59:13.115Z,13.40
2022-10-13T23:02:02.357Z,13.40
2022-10-13T23:04:50.627Z,13.40
2022-10-13T23:07:38.549Z,13.40
2022-10-13T23:10:26.547Z,13.40
2022-10-13T23:13:14.470Z,13.40
2022-10-13T23:16:03.101Z,13.40
2022-10-13T23:18:52.324Z,13.40
2022-10-13T23:21:40.583Z,13.40
2022-10-13T23:24:28.610Z,13.40
2022-10-13T23:27:16.550Z,13.40
2022-10-13T23:30:04.737Z,13.40
2022-10-13T23:32:52.573Z,13.40
2022-10-13T23:35:41.817Z,13.40
2022-10-13T23:38:30.274Z,13.40
2022-10-13T23:41:18.159Z,13.40
2022-10-13T23:44:06.213Z,13.40
2022-10-13T23:46:54.189Z,13.40
2022-10-13T23:49:42.506Z,13.40
2022-10-13T23:52:31.760Z,13.40
2022-10-13T23:55:19.616Z,13.40
2022-10-13T23:58:07.452Z,13.30
